sensor_id;sensor_type;location;lat;lon;timestamp;P1;durP1;ratioP1;P2;durP2;ratioP2
73266;SDS011;61495;53.400;7.608;2023-06-14T00:00:09;2.83;;;1.05;;
73266;SDS011;61495;53.400;7.608;2023-06-14T00:02:38;2.60;;;1.00;;
73266;SDS011;61495;53.400;7.608;2023-06-14T00:05:05;3.35;;;1.08;;
73266;SDS011;61495;53.400;7.608;2023-06-14T00:07:38;2.75;;;1.17;;
73266;SDS011;61495;53.400;7.608;2023-06-14T00:10:08;4.50;;;0.90;;
73266;SDS011;61495;53.400;7.608;2023-06-14T00:12:34;4.97;;;1.42;;
73266;SDS011;61495;53.400;7.608;2023-06-14T00:15:01;2.80;;;1.10;;
73266;SDS011;61495;53.400;7.608;2023-06-14T00:17:27;3.28;;;1.10;;
73266;SDS011;61495;53.400;7.608;2023-06-14T00:19:56;3.90;;;1.08;;
73266;SDS011;61495;53.400;7.608;2023-06-14T00:22:23;2.92;;;1.05;;
73266;SDS011;61495;53.400;7.608;2023-06-14T00:24:56;3.65;;;1.20;;
73266;SDS011;61495;53.400;7.608;2023-06-14T00:27:23;2.70;;;1.10;;
73266;SDS011;61495;53.400;7.608;2023-06-14T00:29:49;4.75;;;1.20;;
73266;SDS011;61495;53.400;7.608;2023-06-14T00:32:15;3.42;;;1.15;;
73266;SDS011;61495;53.400;7.608;2023-06-14T00:34:41;5.80;;;1.38;;
73266;SDS011;61495;53.400;7.608;2023-06-14T00:37:06;2.58;;;1.20;;
73266;SDS011;61495;53.400;7.608;2023-06-14T00:39:32;3.13;;;1.23;;
73266;SDS011;61495;53.400;7.608;2023-06-14T00:41:57;3.60;;;1.40;;
73266;SDS011;61495;53.400;7.608;2023-06-14T00:44:24;3.53;;;1.30;;
73266;SDS011;61495;53.400;7.608;2023-06-14T00:46:50;4.82;;;1.40;;
73266;SDS011;61495;53.400;7.608;2023-06-14T00:49:16;4.55;;;1.00;;
73266;SDS011;61495;53.400;7.608;2023-06-14T00:51:42;3.80;;;1.23;;
73266;SDS011;61495;53.400;7.608;2023-06-14T00:54:08;3.70;;;1.40;;
73266;SDS011;61495;53.400;7.608;2023-06-14T00:56:37;3.00;;;1.10;;
73266;SDS011;61495;53.400;7.608;2023-06-14T00:59:03;3.33;;;1.13;;
73266;SDS011;61495;53.400;7.608;2023-06-14T01:01:31;3.15;;;1.15;;
73266;SDS011;61495;53.400;7.608;2023-06-14T01:04:00;2.88;;;1.17;;
73266;SDS011;61495;53.400;7.608;2023-06-14T01:06:33;2.90;;;1.08;;
73266;SDS011;61495;53.400;7.608;2023-06-14T01:11:54;4.43;;;1.15;;
73266;SDS011;61495;53.400;7.608;2023-06-14T01:14:21;3.55;;;1.20;;
73266;SDS011;61495;53.400;7.608;2023-06-14T01:16:47;3.22;;;1.20;;
73266;SDS011;61495;53.400;7.608;2023-06-14T01:19:18;2.30;;;1.02;;
73266;SDS011;61495;53.400;7.608;2023-06-14T01:21:47;4.47;;;2.00;;
73266;SDS011;61495;53.400;7.608;2023-06-14T01:24:16;3.65;;;1.23;;
73266;SDS011;61495;53.400;7.608;2023-06-14T01:26:44;4.05;;;1.42;;
73266;SDS011;61495;53.400;7.608;2023-06-14T01:29:12;3.55;;;1.35;;
73266;SDS011;61495;53.400;7.608;2023-06-14T01:31:42;2.80;;;1.05;;
73266;SDS011;61495;53.400;7.608;2023-06-14T01:34:09;4.38;;;1.52;;
73266;SDS011;61495;53.400;7.608;2023-06-14T01:36:36;3.70;;;1.27;;
73266;SDS011;61495;53.400;7.608;2023-06-14T01:39:05;9.40;;;1.63;;
73266;SDS011;61495;53.400;7.608;2023-06-14T01:41:31;4.00;;;1.45;;
73266;SDS011;61495;53.400;7.608;2023-06-14T01:43:58;3.17;;;1.40;;
73266;SDS011;61495;53.400;7.608;2023-06-14T01:46:25;3.13;;;1.13;;
73266;SDS011;61495;53.400;7.608;2023-06-14T01:48:50;2.97;;;1.20;;
73266;SDS011;61495;53.400;7.608;2023-06-14T01:51:16;5.75;;;1.33;;
73266;SDS011;61495;53.400;7.608;2023-06-14T01:53:44;3.95;;;1.70;;
73266;SDS011;61495;53.400;7.608;2023-06-14T01:56:10;5.00;;;1.70;;
73266;SDS011;61495;53.400;7.608;2023-06-14T01:58:35;3.40;;;1.20;;
73266;SDS011;61495;53.400;7.608;2023-06-14T02:01:01;3.53;;;1.63;;
73266;SDS011;61495;53.400;7.608;2023-06-14T02:03:27;5.00;;;1.52;;
73266;SDS011;61495;53.400;7.608;2023-06-14T02:05:52;3.13;;;1.58;;
73266;SDS011;61495;53.400;7.608;2023-06-14T02:08:19;5.57;;;2.05;;
73266;SDS011;61495;53.400;7.608;2023-06-14T02:10:44;4.90;;;1.50;;
73266;SDS011;61495;53.400;7.608;2023-06-14T02:13:10;5.95;;;1.85;;
73266;SDS011;61495;53.400;7.608;2023-06-14T02:15:35;3.85;;;1.63;;
73266;SDS011;61495;53.400;7.608;2023-06-14T02:18:02;6.00;;;1.80;;
73266;SDS011;61495;53.400;7.608;2023-06-14T02:20:28;2.90;;;1.20;;
73266;SDS011;61495;53.400;7.608;2023-06-14T02:22:54;5.65;;;1.92;;
73266;SDS011;61495;53.400;7.608;2023-06-14T02:25:20;4.85;;;1.55;;
73266;SDS011;61495;53.400;7.608;2023-06-14T02:27:45;3.78;;;1.60;;
73266;SDS011;61495;53.400;7.608;2023-06-14T02:30:11;5.15;;;1.70;;
73266;SDS011;61495;53.400;7.608;2023-06-14T02:32:37;7.15;;;2.00;;
73266;SDS011;61495;53.400;7.608;2023-06-14T02:35:03;3.17;;;1.42;;
73266;SDS011;61495;53.400;7.608;2023-06-14T02:37:29;6.40;;;2.13;;
73266;SDS011;61495;53.400;7.608;2023-06-14T02:39:55;5.18;;;1.77;;
73266;SDS011;61495;53.400;7.608;2023-06-14T02:42:21;5.78;;;1.83;;
73266;SDS011;61495;53.400;7.608;2023-06-14T02:44:47;4.88;;;1.73;;
73266;SDS011;61495;53.400;7.608;2023-06-14T02:47:16;4.05;;;1.90;;
73266;SDS011;61495;53.400;7.608;2023-06-14T02:49:42;5.85;;;1.98;;
73266;SDS011;61495;53.400;7.608;2023-06-14T02:52:08;4.50;;;1.55;;
73266;SDS011;61495;53.400;7.608;2023-06-14T02:54:34;5.30;;;1.98;;
73266;SDS011;61495;53.400;7.608;2023-06-14T02:56:59;4.00;;;1.50;;
73266;SDS011;61495;53.400;7.608;2023-06-14T02:59:25;5.65;;;2.00;;
73266;SDS011;61495;53.400;7.608;2023-06-14T03:01:51;4.78;;;1.70;;
73266;SDS011;61495;53.400;7.608;2023-06-14T03:04:17;4.28;;;1.60;;
73266;SDS011;61495;53.400;7.608;2023-06-14T03:06:57;4.00;;;1.77;;
73266;SDS011;61495;53.400;7.608;2023-06-14T03:09:25;5.38;;;2.13;;
73266;SDS011;61495;53.400;7.608;2023-06-14T03:11:52;4.22;;;2.05;;
73266;SDS011;61495;53.400;7.608;2023-06-14T03:14:24;6.80;;;1.92;;
73266;SDS011;61495;53.400;7.608;2023-06-14T03:16:49;7.63;;;1.95;;
73266;SDS011;61495;53.400;7.608;2023-06-14T03:19:15;5.57;;;2.10;;
73266;SDS011;61495;53.400;7.608;2023-06-14T03:21:40;4.32;;;1.92;;
73266;SDS011;61495;53.400;7.608;2023-06-14T03:24:08;4.55;;;2.00;;
73266;SDS011;61495;53.400;7.608;2023-06-14T03:26:34;5.00;;;2.10;;
73266;SDS011;61495;53.400;7.608;2023-06-14T03:29:02;5.95;;;1.83;;
73266;SDS011;61495;53.400;7.608;2023-06-14T03:31:28;4.70;;;1.95;;
73266;SDS011;61495;53.400;7.608;2023-06-14T03:33:57;5.80;;;2.45;;
73266;SDS011;61495;53.400;7.608;2023-06-14T03:36:23;4.85;;;2.05;;
73266;SDS011;61495;53.400;7.608;2023-06-14T03:38:50;4.53;;;2.03;;
73266;SDS011;61495;53.400;7.608;2023-06-14T03:41:15;7.72;;;2.10;;
73266;SDS011;61495;53.400;7.608;2023-06-14T03:43:40;5.70;;;2.40;;
73266;SDS011;61495;53.400;7.608;2023-06-14T03:46:06;5.95;;;2.60;;
73266;SDS011;61495;53.400;7.608;2023-06-14T03:48:31;6.28;;;2.15;;
73266;SDS011;61495;53.400;7.608;2023-06-14T03:50:57;5.00;;;2.20;;
73266;SDS011;61495;53.400;7.608;2023-06-14T03:53:23;5.75;;;2.30;;
73266;SDS011;61495;53.400;7.608;2023-06-14T03:55:49;6.50;;;2.40;;
73266;SDS011;61495;53.400;7.608;2023-06-14T03:58:17;6.45;;;2.30;;
73266;SDS011;61495;53.400;7.608;2023-06-14T04:00:43;6.38;;;2.47;;
73266;SDS011;61495;53.400;7.608;2023-06-14T04:03:08;5.47;;;2.30;;
73266;SDS011;61495;53.400;7.608;2023-06-14T04:05:34;7.78;;;2.83;;
73266;SDS011;61495;53.400;7.608;2023-06-14T04:07:59;5.97;;;2.00;;
73266;SDS011;61495;53.400;7.608;2023-06-14T04:10:25;7.57;;;2.50;;
73266;SDS011;61495;53.400;7.608;2023-06-14T04:12:51;5.45;;;2.42;;
73266;SDS011;61495;53.400;7.608;2023-06-14T04:15:17;6.93;;;2.38;;
73266;SDS011;61495;53.400;7.608;2023-06-14T04:17:43;7.80;;;2.70;;
73266;SDS011;61495;53.400;7.608;2023-06-14T04:20:08;6.50;;;2.17;;
73266;SDS011;61495;53.400;7.608;2023-06-14T04:22:35;7.88;;;2.58;;
73266;SDS011;61495;53.400;7.608;2023-06-14T04:25:01;6.70;;;2.55;;
73266;SDS011;61495;53.400;7.608;2023-06-14T04:27:27;5.57;;;2.17;;
73266;SDS011;61495;53.400;7.608;2023-06-14T04:29:54;5.25;;;2.30;;
73266;SDS011;61495;53.400;7.608;2023-06-14T04:32:24;5.25;;;2.63;;
73266;SDS011;61495;53.400;7.608;2023-06-14T04:34:54;4.65;;;2.25;;
73266;SDS011;61495;53.400;7.608;2023-06-14T04:40:42;5.93;;;2.00;;
73266;SDS011;61495;53.400;7.608;2023-06-14T04:43:09;8.60;;;3.03;;
73266;SDS011;61495;53.400;7.608;2023-06-14T04:45:38;4.60;;;2.15;;
73266;SDS011;61495;53.400;7.608;2023-06-14T04:48:04;4.72;;;2.00;;
73266;SDS011;61495;53.400;7.608;2023-06-14T04:50:31;5.30;;;2.72;;
73266;SDS011;61495;53.400;7.608;2023-06-14T04:52:58;6.63;;;2.38;;
73266;SDS011;61495;53.400;7.608;2023-06-14T04:55:24;5.28;;;2.35;;
73266;SDS011;61495;53.400;7.608;2023-06-14T04:57:50;8.57;;;2.20;;
73266;SDS011;61495;53.400;7.608;2023-06-14T05:00:18;5.25;;;2.30;;
73266;SDS011;61495;53.400;7.608;2023-06-14T05:02:43;5.40;;;2.50;;
73266;SDS011;61495;53.400;7.608;2023-06-14T05:05:09;5.57;;;2.17;;
73266;SDS011;61495;53.400;7.608;2023-06-14T05:07:34;6.45;;;2.80;;
73266;SDS011;61495;53.400;7.608;2023-06-14T05:10:00;5.97;;;2.53;;
73266;SDS011;61495;53.400;7.608;2023-06-14T05:12:25;5.50;;;2.25;;
73266;SDS011;61495;53.400;7.608;2023-06-14T05:14:50;7.13;;;2.40;;
73266;SDS011;61495;53.400;7.608;2023-06-14T05:17:16;5.28;;;2.28;;
73266;SDS011;61495;53.400;7.608;2023-06-14T05:19:42;6.10;;;2.72;;
73266;SDS011;61495;53.400;7.608;2023-06-14T05:22:07;5.07;;;2.20;;
73266;SDS011;61495;53.400;7.608;2023-06-14T05:24:33;6.07;;;2.40;;
73266;SDS011;61495;53.400;7.608;2023-06-14T05:26:58;5.50;;;2.50;;
73266;SDS011;61495;53.400;7.608;2023-06-14T05:29:24;7.57;;;2.30;;
73266;SDS011;61495;53.400;7.608;2023-06-14T05:31:49;4.60;;;2.70;;
73266;SDS011;61495;53.400;7.608;2023-06-14T05:34:15;8.10;;;2.30;;
73266;SDS011;61495;53.400;7.608;2023-06-14T05:36:40;4.32;;;2.03;;
73266;SDS011;61495;53.400;7.608;2023-06-14T05:39:06;5.32;;;2.28;;
73266;SDS011;61495;53.400;7.608;2023-06-14T05:41:31;5.07;;;2.15;;
73266;SDS011;61495;53.400;7.608;2023-06-14T05:43:57;7.20;;;2.28;;
73266;SDS011;61495;53.400;7.608;2023-06-14T05:46:23;5.03;;;2.60;;
73266;SDS011;61495;53.400;7.608;2023-06-14T05:48:53;6.15;;;2.35;;
73266;SDS011;61495;53.400;7.608;2023-06-14T05:51:19;6.47;;;2.33;;
73266;SDS011;61495;53.400;7.608;2023-06-14T05:53:45;7.90;;;2.63;;
73266;SDS011;61495;53.400;7.608;2023-06-14T05:56:11;5.60;;;2.30;;
73266;SDS011;61495;53.400;7.608;2023-06-14T05:58:36;5.45;;;2.30;;
73266;SDS011;61495;53.400;7.608;2023-06-14T06:01:02;6.63;;;2.50;;
73266;SDS011;61495;53.400;7.608;2023-06-14T06:03:27;5.97;;;2.25;;
73266;SDS011;61495;53.400;7.608;2023-06-14T06:05:54;5.20;;;2.35;;
73266;SDS011;61495;53.400;7.608;2023-06-14T06:08:20;4.95;;;2.13;;
73266;SDS011;61495;53.400;7.608;2023-06-14T06:10:45;6.45;;;2.38;;
73266;SDS011;61495;53.400;7.608;2023-06-14T06:13:11;5.47;;;2.35;;
73266;SDS011;61495;53.400;7.608;2023-06-14T06:15:36;5.63;;;2.20;;
73266;SDS011;61495;53.400;7.608;2023-06-14T06:18:01;5.68;;;2.92;;
73266;SDS011;61495;53.400;7.608;2023-06-14T06:20:27;6.22;;;2.10;;
73266;SDS011;61495;53.400;7.608;2023-06-14T06:22:53;6.63;;;2.15;;
73266;SDS011;61495;53.400;7.608;2023-06-14T06:25:19;5.50;;;2.13;;
73266;SDS011;61495;53.400;7.608;2023-06-14T06:27:45;5.75;;;2.22;;
73266;SDS011;61495;53.400;7.608;2023-06-14T06:30:11;4.35;;;2.10;;
73266;SDS011;61495;53.400;7.608;2023-06-14T06:32:37;4.35;;;2.22;;
73266;SDS011;61495;53.400;7.608;2023-06-14T06:35:02;6.90;;;2.20;;
73266;SDS011;61495;53.400;7.608;2023-06-14T06:37:31;6.10;;;2.53;;
73266;SDS011;61495;53.400;7.608;2023-06-14T06:39:56;5.70;;;2.30;;
73266;SDS011;61495;53.400;7.608;2023-06-14T06:42:21;4.75;;;2.42;;
73266;SDS011;61495;53.400;7.608;2023-06-14T06:44:47;4.80;;;1.83;;
73266;SDS011;61495;53.400;7.608;2023-06-14T06:47:12;4.80;;;1.92;;
73266;SDS011;61495;53.400;7.608;2023-06-14T06:49:37;7.13;;;2.10;;
73266;SDS011;61495;53.400;7.608;2023-06-14T06:52:04;4.70;;;2.40;;
73266;SDS011;61495;53.400;7.608;2023-06-14T06:54:31;6.53;;;1.92;;
73266;SDS011;61495;53.400;7.608;2023-06-14T06:56:57;5.07;;;2.08;;
73266;SDS011;61495;53.400;7.608;2023-06-14T06:59:23;5.35;;;2.22;;
73266;SDS011;61495;53.400;7.608;2023-06-14T07:01:49;4.53;;;2.00;;
73266;SDS011;61495;53.400;7.608;2023-06-14T07:04:15;3.80;;;2.15;;
73266;SDS011;61495;53.400;7.608;2023-06-14T07:06:41;5.03;;;2.05;;
73266;SDS011;61495;53.400;7.608;2023-06-14T07:09:07;8.65;;;2.33;;
73266;SDS011;61495;53.400;7.608;2023-06-14T07:11:37;4.25;;;2.03;;
73266;SDS011;61495;53.400;7.608;2023-06-14T07:14:05;5.60;;;2.20;;
73266;SDS011;61495;53.400;7.608;2023-06-14T07:16:31;5.30;;;2.05;;
73266;SDS011;61495;53.400;7.608;2023-06-14T07:18:57;4.07;;;1.88;;
73266;SDS011;61495;53.400;7.608;2023-06-14T07:21:22;6.78;;;2.47;;
73266;SDS011;61495;53.400;7.608;2023-06-14T07:23:48;5.65;;;2.28;;
73266;SDS011;61495;53.400;7.608;2023-06-14T07:26:13;4.97;;;2.00;;
73266;SDS011;61495;53.400;7.608;2023-06-14T07:28:38;4.85;;;2.42;;
73266;SDS011;61495;53.400;7.608;2023-06-14T07:31:04;4.70;;;1.98;;
73266;SDS011;61495;53.400;7.608;2023-06-14T07:33:29;4.30;;;2.13;;
73266;SDS011;61495;53.400;7.608;2023-06-14T07:35:54;3.97;;;2.08;;
73266;SDS011;61495;53.400;7.608;2023-06-14T07:38:20;5.75;;;1.73;;
73266;SDS011;61495;53.400;7.608;2023-06-14T07:40:45;4.60;;;2.05;;
73266;SDS011;61495;53.400;7.608;2023-06-14T07:43:10;5.35;;;2.42;;
73266;SDS011;61495;53.400;7.608;2023-06-14T07:45:36;5.15;;;2.15;;
73266;SDS011;61495;53.400;7.608;2023-06-14T07:48:02;4.03;;;2.20;;
73266;SDS011;61495;53.400;7.608;2023-06-14T07:50:28;5.40;;;1.95;;
73266;SDS011;61495;53.400;7.608;2023-06-14T07:52:54;3.88;;;2.05;;
73266;SDS011;61495;53.400;7.608;2023-06-14T07:55:19;5.35;;;1.98;;
73266;SDS011;61495;53.400;7.608;2023-06-14T07:57:45;6.07;;;1.90;;
73266;SDS011;61495;53.400;7.608;2023-06-14T08:00:11;5.43;;;2.08;;
73266;SDS011;61495;53.400;7.608;2023-06-14T08:02:40;5.18;;;1.92;;
73266;SDS011;61495;53.400;7.608;2023-06-14T08:05:07;5.00;;;2.17;;
73266;SDS011;61495;53.400;7.608;2023-06-14T08:07:34;7.45;;;2.00;;
73266;SDS011;61495;53.400;7.608;2023-06-14T08:10:00;4.50;;;2.17;;
73266;SDS011;61495;53.400;7.608;2023-06-14T08:12:25;4.53;;;1.90;;
73266;SDS011;61495;53.400;7.608;2023-06-14T08:14:51;4.00;;;1.80;;
73266;SDS011;61495;53.400;7.608;2023-06-14T08:17:16;6.53;;;2.10;;
73266;SDS011;61495;53.400;7.608;2023-06-14T08:19:42;5.20;;;2.45;;
73266;SDS011;61495;53.400;7.608;2023-06-14T08:22:07;4.97;;;1.90;;
73266;SDS011;61495;53.400;7.608;2023-06-14T08:24:33;4.18;;;2.20;;
73266;SDS011;61495;53.400;7.608;2023-06-14T08:26:58;3.38;;;1.85;;
73266;SDS011;61495;53.400;7.608;2023-06-14T08:29:26;5.05;;;2.33;;
73266;SDS011;61495;53.400;7.608;2023-06-14T08:31:54;5.05;;;1.98;;
73266;SDS011;61495;53.400;7.608;2023-06-14T08:34:20;5.15;;;1.90;;
73266;SDS011;61495;53.400;7.608;2023-06-14T08:36:45;5.45;;;2.10;;
73266;SDS011;61495;53.400;7.608;2023-06-14T08:39:10;5.65;;;2.15;;
73266;SDS011;61495;53.400;7.608;2023-06-14T08:41:36;5.55;;;2.08;;
73266;SDS011;61495;53.400;7.608;2023-06-14T08:44:02;4.38;;;1.80;;
73266;SDS011;61495;53.400;7.608;2023-06-14T08:46:27;4.65;;;2.00;;
73266;SDS011;61495;53.400;7.608;2023-06-14T08:48:58;4.95;;;2.20;;
73266;SDS011;61495;53.400;7.608;2023-06-14T08:51:26;4.85;;;1.85;;
73266;SDS011;61495;53.400;7.608;2023-06-14T08:53:58;4.93;;;2.17;;
73266;SDS011;61495;53.400;7.608;2023-06-14T08:56:26;4.57;;;2.00;;
73266;SDS011;61495;53.400;7.608;2023-06-14T08:58:54;4.55;;;2.25;;
73266;SDS011;61495;53.400;7.608;2023-06-14T09:01:21;5.72;;;1.98;;
73266;SDS011;61495;53.400;7.608;2023-06-14T09:03:48;5.47;;;2.38;;
73266;SDS011;61495;53.400;7.608;2023-06-14T09:06:14;6.35;;;2.13;;
73266;SDS011;61495;53.400;7.608;2023-06-14T09:08:43;4.70;;;2.28;;
73266;SDS011;61495;53.400;7.608;2023-06-14T09:11:13;6.60;;;2.53;;
73266;SDS011;61495;53.400;7.608;2023-06-14T09:13:39;6.13;;;2.28;;
73266;SDS011;61495;53.400;7.608;2023-06-14T09:16:06;6.18;;;1.65;;
73266;SDS011;61495;53.400;7.608;2023-06-14T09:18:38;5.47;;;2.20;;
73266;SDS011;61495;53.400;7.608;2023-06-14T09:21:13;5.88;;;1.95;;
73266;SDS011;61495;53.400;7.608;2023-06-14T09:23:40;6.15;;;2.30;;
73266;SDS011;61495;53.400;7.608;2023-06-14T09:28:48;5.25;;;2.10;;
73266;SDS011;61495;53.400;7.608;2023-06-14T09:31:16;4.90;;;2.30;;
73266;SDS011;61495;53.400;7.608;2023-06-14T09:33:46;5.65;;;1.92;;
73266;SDS011;61495;53.400;7.608;2023-06-14T09:36:15;5.63;;;2.13;;
73266;SDS011;61495;53.400;7.608;2023-06-14T09:39:00;5.03;;;2.17;;
73266;SDS011;61495;53.400;7.608;2023-06-14T09:41:34;5.70;;;2.20;;
73266;SDS011;61495;53.400;7.608;2023-06-14T09:44:01;4.43;;;2.20;;
73266;SDS011;61495;53.400;7.608;2023-06-14T09:46:28;3.97;;;1.83;;
73266;SDS011;61495;53.400;7.608;2023-06-14T09:48:55;5.90;;;1.85;;
73266;SDS011;61495;53.400;7.608;2023-06-14T09:51:22;4.43;;;2.00;;
73266;SDS011;61495;53.400;7.608;2023-06-14T09:53:49;4.68;;;2.00;;
73266;SDS011;61495;53.400;7.608;2023-06-14T09:56:26;3.95;;;2.10;;
73266;SDS011;61495;53.400;7.608;2023-06-14T09:58:55;5.75;;;2.13;;
73266;SDS011;61495;53.400;7.608;2023-06-14T10:01:23;6.78;;;2.10;;
73266;SDS011;61495;53.400;7.608;2023-06-14T10:03:50;4.18;;;1.70;;
73266;SDS011;61495;53.400;7.608;2023-06-14T10:06:20;3.92;;;1.92;;
73266;SDS011;61495;53.400;7.608;2023-06-14T10:08:49;3.90;;;1.77;;
73266;SDS011;61495;53.400;7.608;2023-06-14T10:11:17;4.13;;;1.80;;
73266;SDS011;61495;53.400;7.608;2023-06-14T10:13:42;4.75;;;1.95;;
73266;SDS011;61495;53.400;7.608;2023-06-14T10:16:21;6.85;;;1.80;;
73266;SDS011;61495;53.400;7.608;2023-06-14T10:19:00;6.63;;;2.05;;
73266;SDS011;61495;53.400;7.608;2023-06-14T10:24:50;4.03;;;1.40;;
73266;SDS011;61495;53.400;7.608;2023-06-14T10:27:15;5.63;;;1.80;;
73266;SDS011;61495;53.400;7.608;2023-06-14T10:32:21;4.43;;;1.70;;
73266;SDS011;61495;53.400;7.608;2023-06-14T10:35:01;4.60;;;1.52;;
73266;SDS011;61495;53.400;7.608;2023-06-14T10:37:30;5.22;;;1.58;;
73266;SDS011;61495;53.400;7.608;2023-06-14T10:39:55;3.00;;;1.50;;
73266;SDS011;61495;53.400;7.608;2023-06-14T10:42:21;4.22;;;1.80;;
73266;SDS011;61495;53.400;7.608;2023-06-14T10:47:21;7.15;;;1.83;;
73266;SDS011;61495;53.400;7.608;2023-06-14T10:52:32;3.97;;;1.52;;
73266;SDS011;61495;53.400;7.608;2023-06-14T10:55:08;8.10;;;1.80;;
73266;SDS011;61495;53.400;7.608;2023-06-14T10:57:45;4.20;;;1.60;;
73266;SDS011;61495;53.400;7.608;2023-06-14T11:00:13;4.53;;;1.83;;
73266;SDS011;61495;53.400;7.608;2023-06-14T11:05:41;4.55;;;1.67;;
73266;SDS011;61495;53.400;7.608;2023-06-14T11:11:10;5.55;;;1.73;;
73266;SDS011;61495;53.400;7.608;2023-06-14T11:13:38;7.93;;;1.88;;
73266;SDS011;61495;53.400;7.608;2023-06-14T11:16:09;4.40;;;1.67;;
73266;SDS011;61495;53.400;7.608;2023-06-14T11:18:36;3.03;;;1.60;;
73266;SDS011;61495;53.400;7.608;2023-06-14T11:21:01;5.50;;;1.80;;
73266;SDS011;61495;53.400;7.608;2023-06-14T11:23:27;5.55;;;1.73;;
73266;SDS011;61495;53.400;7.608;2023-06-14T11:25:53;4.88;;;1.60;;
73266;SDS011;61495;53.400;7.608;2023-06-14T11:28:18;4.15;;;1.88;;
73266;SDS011;61495;53.400;7.608;2023-06-14T11:30:46;6.22;;;1.88;;
73266;SDS011;61495;53.400;7.608;2023-06-14T11:33:16;4.22;;;1.88;;
73266;SDS011;61495;53.400;7.608;2023-06-14T11:35:43;4.40;;;1.80;;
73266;SDS011;61495;53.400;7.608;2023-06-14T11:38:09;3.92;;;1.42;;
73266;SDS011;61495;53.400;7.608;2023-06-14T11:40:37;3.40;;;1.80;;
73266;SDS011;61495;53.400;7.608;2023-06-14T11:43:03;4.63;;;1.65;;
73266;SDS011;61495;53.400;7.608;2023-06-14T11:45:29;4.15;;;1.60;;
73266;SDS011;61495;53.400;7.608;2023-06-14T11:47:56;4.93;;;1.63;;
73266;SDS011;61495;53.400;7.608;2023-06-14T11:50:22;3.78;;;1.70;;
73266;SDS011;61495;53.400;7.608;2023-06-14T11:52:58;3.15;;;1.58;;
73266;SDS011;61495;53.400;7.608;2023-06-14T11:55:28;4.35;;;1.77;;
73266;SDS011;61495;53.400;7.608;2023-06-14T11:57:54;6.20;;;1.70;;
73266;SDS011;61495;53.400;7.608;2023-06-14T12:00:22;4.38;;;1.75;;
73266;SDS011;61495;53.400;7.608;2023-06-14T12:02:53;5.30;;;1.77;;
73266;SDS011;61495;53.400;7.608;2023-06-14T12:05:22;4.40;;;1.77;;
73266;SDS011;61495;53.400;7.608;2023-06-14T12:07:49;4.45;;;1.75;;
73266;SDS011;61495;53.400;7.608;2023-06-14T12:10:15;5.95;;;1.70;;
73266;SDS011;61495;53.400;7.608;2023-06-14T12:12:41;4.38;;;1.55;;
73266;SDS011;61495;53.400;7.608;2023-06-14T12:15:08;4.68;;;1.40;;
73266;SDS011;61495;53.400;7.608;2023-06-14T12:17:36;3.72;;;1.70;;
73266;SDS011;61495;53.400;7.608;2023-06-14T12:20:06;3.90;;;1.70;;
73266;SDS011;61495;53.400;7.608;2023-06-14T12:22:59;4.68;;;1.70;;
73266;SDS011;61495;53.400;7.608;2023-06-14T12:25:26;5.05;;;1.90;;
73266;SDS011;61495;53.400;7.608;2023-06-14T12:27:54;4.80;;;1.83;;
73266;SDS011;61495;53.400;7.608;2023-06-14T12:30:20;4.72;;;1.80;;
73266;SDS011;61495;53.400;7.608;2023-06-14T12:32:45;6.55;;;2.00;;
73266;SDS011;61495;53.400;7.608;2023-06-14T12:35:11;4.85;;;2.10;;
73266;SDS011;61495;53.400;7.608;2023-06-14T12:37:36;3.65;;;1.73;;
73266;SDS011;61495;53.400;7.608;2023-06-14T12:40:03;3.80;;;1.77;;
73266;SDS011;61495;53.400;7.608;2023-06-14T12:42:30;5.00;;;1.60;;
73266;SDS011;61495;53.400;7.608;2023-06-14T12:44:56;5.05;;;1.90;;
73266;SDS011;61495;53.400;7.608;2023-06-14T12:47:21;4.85;;;1.50;;
73266;SDS011;61495;53.400;7.608;2023-06-14T12:49:47;4.43;;;1.70;;
73266;SDS011;61495;53.400;7.608;2023-06-14T12:52:12;3.20;;;1.80;;
73266;SDS011;61495;53.400;7.608;2023-06-14T12:54:38;4.65;;;2.03;;
73266;SDS011;61495;53.400;7.608;2023-06-14T12:57:04;5.30;;;2.05;;
73266;SDS011;61495;53.400;7.608;2023-06-14T12:59:30;5.15;;;1.70;;
73266;SDS011;61495;53.400;7.608;2023-06-14T13:01:59;6.15;;;1.95;;
73266;SDS011;61495;53.400;7.608;2023-06-14T13:04:35;6.53;;;2.08;;
73266;SDS011;61495;53.400;7.608;2023-06-14T13:07:01;4.13;;;1.83;;
73266;SDS011;61495;53.400;7.608;2023-06-14T13:09:26;6.00;;;1.98;;
73266;SDS011;61495;53.400;7.608;2023-06-14T13:11:52;6.32;;;2.00;;
73266;SDS011;61495;53.400;7.608;2023-06-14T13:14:17;6.63;;;1.75;;
73266;SDS011;61495;53.400;7.608;2023-06-14T13:16:42;6.95;;;1.80;;
73266;SDS011;61495;53.400;7.608;2023-06-14T13:19:08;5.80;;;2.20;;
73266;SDS011;61495;53.400;7.608;2023-06-14T13:21:33;6.25;;;2.15;;
73266;SDS011;61495;53.400;7.608;2023-06-14T13:23:59;4.05;;;2.03;;
73266;SDS011;61495;53.400;7.608;2023-06-14T13:26:24;4.68;;;2.13;;
73266;SDS011;61495;53.400;7.608;2023-06-14T13:28:50;5.80;;;1.85;;
73266;SDS011;61495;53.400;7.608;2023-06-14T13:31:16;4.55;;;2.10;;
73266;SDS011;61495;53.400;7.608;2023-06-14T13:33:41;4.22;;;2.00;;
73266;SDS011;61495;53.400;7.608;2023-06-14T13:36:07;4.15;;;1.98;;
73266;SDS011;61495;53.400;7.608;2023-06-14T13:38:32;7.30;;;2.20;;
73266;SDS011;61495;53.400;7.608;2023-06-14T13:40:57;5.35;;;2.15;;
73266;SDS011;61495;53.400;7.608;2023-06-14T13:43:23;4.03;;;1.88;;
73266;SDS011;61495;53.400;7.608;2023-06-14T13:45:48;3.83;;;1.80;;
73266;SDS011;61495;53.400;7.608;2023-06-14T13:48:13;7.00;;;2.55;;
73266;SDS011;61495;53.400;7.608;2023-06-14T13:50:39;7.90;;;2.22;;
73266;SDS011;61495;53.400;7.608;2023-06-14T13:53:05;5.80;;;2.35;;
73266;SDS011;61495;53.400;7.608;2023-06-14T13:55:30;5.18;;;1.70;;
73266;SDS011;61495;53.400;7.608;2023-06-14T13:57:56;5.13;;;2.42;;
73266;SDS011;61495;53.400;7.608;2023-06-14T14:00:21;5.57;;;2.20;;
73266;SDS011;61495;53.400;7.608;2023-06-14T14:02:47;4.82;;;2.00;;
73266;SDS011;61495;53.400;7.608;2023-06-14T14:05:15;3.80;;;2.25;;
73266;SDS011;61495;53.400;7.608;2023-06-14T14:07:41;4.10;;;2.05;;
73266;SDS011;61495;53.400;7.608;2023-06-14T14:10:07;5.45;;;2.08;;
73266;SDS011;61495;53.400;7.608;2023-06-14T14:12:33;4.60;;;2.00;;
73266;SDS011;61495;53.400;7.608;2023-06-14T14:14:59;6.70;;;2.20;;
73266;SDS011;61495;53.400;7.608;2023-06-14T14:17:25;6.25;;;2.47;;
73266;SDS011;61495;53.400;7.608;2023-06-14T14:19:52;4.57;;;2.15;;
73266;SDS011;61495;53.400;7.608;2023-06-14T14:22:17;4.50;;;2.03;;
73266;SDS011;61495;53.400;7.608;2023-06-14T14:24:43;3.65;;;2.33;;
73266;SDS011;61495;53.400;7.608;2023-06-14T14:27:09;5.75;;;2.83;;
73266;SDS011;61495;53.400;7.608;2023-06-14T14:29:35;6.97;;;2.65;;
73266;SDS011;61495;53.400;7.608;2023-06-14T14:32:00;4.38;;;1.95;;
73266;SDS011;61495;53.400;7.608;2023-06-14T14:34:26;7.25;;;2.20;;
73266;SDS011;61495;53.400;7.608;2023-06-14T14:36:51;6.53;;;2.70;;
73266;SDS011;61495;53.400;7.608;2023-06-14T14:39:17;5.10;;;2.75;;
73266;SDS011;61495;53.400;7.608;2023-06-14T14:41:42;4.60;;;2.10;;
73266;SDS011;61495;53.400;7.608;2023-06-14T14:44:08;4.55;;;2.20;;
73266;SDS011;61495;53.400;7.608;2023-06-14T14:46:33;5.07;;;2.15;;
73266;SDS011;61495;53.400;7.608;2023-06-14T14:48:59;5.55;;;2.50;;
73266;SDS011;61495;53.400;7.608;2023-06-14T14:51:25;6.05;;;2.40;;
73266;SDS011;61495;53.400;7.608;2023-06-14T14:53:50;6.82;;;2.22;;
73266;SDS011;61495;53.400;7.608;2023-06-14T14:56:16;6.40;;;2.35;;
73266;SDS011;61495;53.400;7.608;2023-06-14T14:58:42;6.28;;;2.30;;
73266;SDS011;61495;53.400;7.608;2023-06-14T15:01:07;5.45;;;2.60;;
73266;SDS011;61495;53.400;7.608;2023-06-14T15:03:33;4.35;;;2.15;;
73266;SDS011;61495;53.400;7.608;2023-06-14T15:05:58;5.03;;;2.17;;
73266;SDS011;61495;53.400;7.608;2023-06-14T15:08:23;4.53;;;2.20;;
73266;SDS011;61495;53.400;7.608;2023-06-14T15:10:49;4.38;;;2.08;;